Current Weather

Warrenton/Fauquier

Warrenton, Virginia (KHWY)

Report from: Tuesday, February 27, 2024 10:55 AM UTC
Current time: Tuesday, February 27, 2024 11:23 AM UTC

Nearby weather – Weather history – Daily summaries
Weather forecast

Temperature10.0°C (50.0°F)
Wind chill9.1°C (48.5°F)
Dew point2.5°C (36.5°F)
Winds 4 kts (2.1 m/s, 4.6 mph) South (190°)
Visibility10 mi. (16.1 km)
Clouds Sky clear
Altimeter29.94 in.Hg (1014 mB)
Relative humidity60 %
Density altitude-510 ft. (-155 m)
Remarks Fully automated report
Automated weather observing station with precipitation discriminator
Flight conditions Visual Meteorological Conditions
Raw dataKHWY 271055Z AUTO 19004KT 10SM CLR 10/03 A2994 RMK AO2 T01000025
An error has occurred. This application may no longer respond until reloaded. Reload 🗙